createdAt,value
2018-07-20T00:01:36.903Z,3.17
2018-07-20T00:04:06.130Z,3.10
2018-07-20T00:06:35.317Z,3.17
2018-07-20T00:09:06.299Z,3.30
2018-07-20T00:11:35.564Z,3.30
2018-07-20T00:14:04.785Z,2.73
2018-07-20T00:16:34.052Z,3.00
2018-07-20T00:19:03.293Z,3.17
2018-07-20T00:21:32.488Z,3.30
2018-07-20T00:24:01.793Z,3.03
2018-07-20T00:26:30.451Z,3.40
2018-07-20T00:28:59.747Z,3.67
2018-07-20T00:31:29.316Z,3.20
2018-07-20T00:33:58.475Z,3.30
2018-07-20T00:36:27.716Z,3.43
2018-07-20T00:38:57.117Z,3.20
2018-07-20T00:41:26.281Z,3.30
2018-07-20T00:43:55.520Z,3.33
2018-07-20T00:46:24.696Z,2.93
2018-07-20T00:48:53.979Z,3.10
2018-07-20T00:51:23.169Z,3.30
2018-07-20T00:53:52.372Z,3.27
2018-07-20T00:56:21.575Z,3.30
2018-07-20T00:58:50.964Z,3.70
2018-07-20T01:01:20.173Z,3.67
2018-07-20T01:03:49.517Z,3.60
2018-07-20T01:06:18.709Z,3.60
2018-07-20T01:08:47.974Z,4.00
2018-07-20T01:11:17.163Z,4.00
2018-07-20T01:13:46.367Z,4.27
2018-07-20T01:16:15.120Z,4.73
2018-07-20T01:18:44.389Z,5.10
2018-07-20T01:21:13.651Z,4.80
2018-07-20T01:23:42.872Z,4.67
2018-07-20T01:26:12.072Z,4.43
2018-07-20T01:28:41.348Z,4.80
2018-07-20T01:31:10.640Z,4.80
2018-07-20T01:33:39.884Z,5.00
2018-07-20T01:36:09.122Z,4.90
2018-07-20T01:38:38.440Z,5.50
2018-07-20T01:41:07.612Z,6.47
2018-07-20T01:43:36.775Z,6.40
2018-07-20T01:46:06.001Z,6.60
2018-07-20T01:48:35.232Z,6.53
2018-07-20T01:51:04.430Z,6.20
2018-07-20T01:53:33.643Z,5.97
2018-07-20T01:56:02.833Z,5.53
2018-07-20T01:58:32.025Z,5.73
2018-07-20T02:01:01.222Z,6.27
2018-07-20T02:03:30.417Z,5.23
2018-07-20T02:05:59.663Z,5.57
2018-07-20T02:08:29.298Z,5.83
2018-07-20T02:11:00.556Z,5.97
2018-07-20T02:13:29.747Z,5.90
2018-07-20T02:15:59.355Z,5.80
2018-07-20T02:18:28.580Z,6.60
2018-07-20T02:20:57.776Z,6.10
2018-07-20T02:23:26.973Z,6.03
2018-07-20T02:25:56.322Z,6.13
2018-07-20T02:28:25.542Z,5.90
2018-07-20T02:30:54.744Z,5.70
2018-07-20T02:33:23.946Z,5.83
2018-07-20T02:35:53.145Z,6.30
2018-07-20T02:38:22.345Z,5.47
2018-07-20T02:40:51.916Z,5.73
2018-07-20T02:43:21.117Z,5.67
2018-07-20T02:45:50.313Z,5.60
2018-07-20T02:48:19.513Z,5.70
2018-07-20T02:50:48.712Z,6.27
2018-07-20T02:53:17.940Z,5.67
2018-07-20T02:55:47.141Z,5.60
2018-07-20T02:58:16.844Z,5.13
2018-07-20T03:00:46.072Z,5.30
2018-07-20T03:03:15.266Z,5.03
2018-07-20T03:05:44.468Z,5.47
2018-07-20T03:08:13.768Z,5.27
2018-07-20T03:10:43.009Z,5.60
2018-07-20T03:13:12.185Z,5.20
2018-07-20T03:15:41.373Z,5.07
2018-07-20T03:18:10.558Z,5.60
2018-07-20T03:20:39.805Z,5.40
2018-07-20T03:23:09.106Z,5.60
2018-07-20T03:25:38.300Z,5.77
2018-07-20T03:28:07.455Z,5.67
2018-07-20T03:30:36.752Z,6.00
2018-07-20T03:33:05.955Z,5.47
2018-07-20T03:35:35.128Z,6.03
2018-07-20T03:38:04.324Z,5.60
2018-07-20T03:40:33.653Z,5.13
2018-07-20T03:43:03.306Z,5.30
2018-07-20T03:45:32.532Z,5.87
2018-07-20T03:48:01.735Z,5.27
2018-07-20T03:50:30.997Z,5.20
2018-07-20T03:53:00.199Z,5.60
2018-07-20T03:55:29.395Z,5.17
2018-07-20T03:57:58.592Z,5.43
2018-07-20T04:00:27.915Z,4.83
2018-07-20T04:02:57.484Z,5.33
2018-07-20T04:05:26.695Z,5.10
2018-07-20T04:07:55.897Z,5.07
2018-07-20T04:10:25.153Z,5.17
2018-07-20T04:12:54.448Z,5.30
2018-07-20T04:15:23.827Z,4.80
2018-07-20T04:17:53.017Z,5.17
2018-07-20T04:20:22.298Z,4.90
2018-07-20T04:22:51.520Z,5.00
2018-07-20T04:25:20.717Z,4.90
2018-07-20T04:27:49.921Z,4.70
2018-07-20T04:30:19.212Z,5.30
2018-07-20T04:32:48.652Z,5.13
2018-07-20T04:35:17.984Z,5.43
2018-07-20T04:37:47.332Z,5.23
2018-07-20T04:40:16.709Z,5.07
2018-07-20T04:42:45.954Z,5.27
2018-07-20T04:45:15.239Z,5.10
2018-07-20T04:47:44.595Z,5.07
2018-07-20T04:50:13.891Z,4.43
2018-07-20T04:52:43.273Z,4.60
2018-07-20T04:55:12.530Z,5.07
2018-07-20T04:57:41.847Z,4.80
2018-07-20T05:00:11.232Z,4.80
2018-07-20T05:02:40.500Z,4.73
2018-07-20T05:05:09.793Z,5.10
2018-07-20T05:07:39.140Z,5.20
2018-07-20T05:10:08.457Z,4.87
2018-07-20T05:12:38.523Z,5.80
2018-07-20T05:15:07.896Z,5.07
2018-07-20T05:17:37.189Z,5.00
2018-07-20T05:20:07.072Z,4.83
2018-07-20T05:22:37.323Z,4.73
2018-07-20T05:25:07.571Z,4.87
2018-07-20T05:27:38.139Z,4.70
2018-07-20T05:30:07.492Z,4.90
2018-07-20T05:32:37.057Z,4.67
2018-07-20T05:35:06.900Z,5.23
2018-07-20T05:37:36.831Z,4.90
2018-07-20T05:40:07.061Z,4.70
2018-07-20T05:42:36.574Z,4.80
2018-07-20T05:45:06.299Z,5.10
2018-07-20T05:47:36.559Z,5.23
2018-07-20T05:50:08.406Z,5.90
2018-07-20T05:52:37.756Z,5.50
2018-07-20T05:55:07.045Z,5.07
2018-07-20T05:57:36.380Z,5.93
2018-07-20T06:00:06.439Z,5.73
2018-07-20T06:02:35.869Z,5.37
2018-07-20T06:05:05.332Z,5.67
2018-07-20T06:07:34.641Z,5.53
2018-07-20T06:10:04.061Z,5.87
2018-07-20T06:12:33.493Z,5.27
2018-07-20T06:15:02.789Z,6.03
2018-07-20T06:17:32.184Z,5.30
2018-07-20T06:20:01.544Z,4.87
2018-07-20T06:22:31.253Z,5.70
2018-07-20T06:25:00.488Z,4.93
2018-07-20T06:27:29.876Z,5.10
2018-07-20T06:29:59.300Z,5.47
2018-07-20T06:32:28.735Z,5.70
2018-07-20T06:34:58.172Z,5.53
2018-07-20T06:37:27.497Z,4.93
2018-07-20T06:39:57.074Z,4.70
2018-07-20T06:42:26.530Z,4.77
2018-07-20T06:44:55.838Z,4.83
2018-07-20T06:47:25.197Z,5.33
2018-07-20T06:49:54.591Z,4.47
2018-07-20T06:52:24.009Z,4.90
2018-07-20T06:54:53.442Z,4.90
2018-07-20T06:57:22.728Z,4.50
2018-07-20T06:59:52.296Z,4.90
2018-07-20T07:02:21.624Z,8.70
2018-07-20T07:04:50.981Z,7.10
2018-07-20T07:07:20.339Z,7.53
2018-07-20T07:09:49.788Z,6.57
2018-07-20T07:12:19.134Z,6.63
2018-07-20T07:14:48.680Z,6.47
2018-07-20T07:17:18.256Z,5.90
2018-07-20T07:19:47.768Z,5.70
2018-07-20T07:22:16.802Z,6.13
2018-07-20T07:24:46.184Z,5.83
2018-07-20T07:27:15.504Z,5.30
2018-07-20T07:29:44.903Z,5.60
2018-07-20T07:32:14.243Z,5.23
2018-07-20T07:34:43.645Z,5.47
2018-07-20T07:37:13.026Z,5.47
2018-07-20T07:39:42.401Z,4.90
2018-07-20T07:42:11.833Z,4.90
2018-07-20T07:44:41.149Z,4.83
2018-07-20T07:47:10.636Z,5.07
2018-07-20T07:49:40.089Z,4.37
2018-07-20T07:52:09.492Z,4.70
2018-07-20T07:54:38.803Z,4.83
2018-07-20T07:57:08.276Z,4.97
2018-07-20T07:59:37.939Z,4.70
2018-07-20T08:02:07.569Z,4.80
2018-07-20T08:04:36.897Z,4.90
2018-07-20T08:07:06.219Z,4.60
2018-07-20T08:09:35.644Z,4.50
2018-07-20T08:12:04.977Z,4.70
2018-07-20T08:14:34.276Z,4.47
2018-07-20T08:17:03.559Z,4.53
2018-07-20T08:19:32.988Z,4.30
2018-07-20T08:22:02.325Z,4.37
2018-07-20T08:24:31.831Z,4.40
2018-07-20T08:27:00.711Z,4.70
2018-07-20T08:29:30.158Z,4.60
2018-07-20T08:31:59.532Z,4.47
2018-07-20T08:34:28.829Z,4.17
2018-07-20T08:36:58.162Z,4.10
2018-07-20T08:39:27.618Z,4.57
2018-07-20T08:41:56.911Z,3.80
2018-07-20T08:44:26.258Z,4.27
2018-07-20T08:46:55.588Z,4.20
2018-07-20T08:49:25.028Z,4.43
2018-07-20T08:51:54.382Z,3.90
2018-07-20T08:54:23.637Z,4.50
2018-07-20T08:56:53.850Z,4.57
2018-07-20T08:59:24.214Z,3.60
2018-07-20T09:01:54.257Z,3.73
2018-07-20T09:04:24.407Z,3.83
2018-07-20T09:06:55.183Z,4.00
2018-07-20T09:09:24.847Z,3.80
2018-07-20T09:11:54.985Z,3.53
2018-07-20T09:14:24.504Z,3.63
2018-07-20T09:16:54.867Z,3.80
2018-07-20T09:19:25.028Z,3.73
2018-07-20T09:21:54.787Z,3.97
2018-07-20T09:24:24.296Z,3.43
2018-07-20T09:26:53.837Z,4.50
2018-07-20T09:29:23.163Z,3.87
2018-07-20T09:31:52.497Z,4.17
2018-07-20T09:34:21.995Z,3.87
2018-07-20T09:36:52.584Z,3.57
2018-07-20T09:39:22.000Z,4.33
2018-07-20T09:41:51.300Z,3.57
2018-07-20T09:44:21.481Z,3.80
2018-07-20T09:46:52.612Z,4.00
2018-07-20T09:49:21.946Z,4.00
2018-07-20T09:51:51.331Z,3.90
2018-07-20T09:54:22.444Z,3.70
2018-07-20T09:56:52.901Z,3.67
2018-07-20T09:59:23.035Z,3.50
2018-07-20T10:01:53.122Z,3.80
2018-07-20T10:04:22.595Z,3.60
2018-07-20T10:06:52.075Z,3.47
2018-07-20T10:09:21.480Z,3.57
2018-07-20T10:11:50.824Z,3.97
2018-07-20T10:14:20.257Z,3.70
2018-07-20T10:16:49.544Z,3.70
2018-07-20T10:19:18.977Z,3.90
2018-07-20T10:21:48.451Z,3.53
2018-07-20T10:24:18.795Z,3.80
2018-07-20T10:26:48.118Z,4.17
2018-07-20T10:29:18.416Z,3.90
2018-07-20T10:31:49.231Z,4.10
2018-07-20T10:34:19.421Z,4.10
2018-07-20T10:36:49.265Z,3.70
2018-07-20T10:39:19.223Z,3.70
2018-07-20T10:41:49.106Z,3.63
2018-07-20T10:44:18.629Z,3.30
2018-07-20T10:46:47.955Z,3.67
2018-07-20T10:49:17.370Z,3.90
2018-07-20T10:51:46.734Z,3.40
2018-07-20T10:54:17.284Z,4.07
2018-07-20T10:56:46.666Z,3.40
2018-07-20T10:59:16.024Z,3.43
2018-07-20T11:01:46.484Z,3.30
2018-07-20T11:04:15.886Z,3.63
2018-07-20T11:06:45.231Z,4.00
2018-07-20T11:09:14.727Z,4.63
2018-07-20T11:11:44.108Z,3.90
2018-07-20T11:14:13.516Z,3.90
2018-07-20T11:16:42.874Z,3.53
2018-07-20T11:19:12.252Z,3.40
2018-07-20T11:21:41.604Z,3.37
2018-07-20T11:24:10.936Z,3.77
2018-07-20T11:26:40.306Z,4.03
2018-07-20T11:29:09.709Z,3.70
2018-07-20T11:31:39.033Z,3.37
2018-07-20T11:34:08.376Z,3.90
2018-07-20T11:36:37.717Z,3.43
2018-07-20T11:39:08.834Z,3.43
2018-07-20T11:41:38.947Z,3.60
2018-07-20T11:44:08.384Z,3.50
2018-07-20T11:46:38.096Z,3.40
2018-07-20T11:49:07.434Z,3.37
2018-07-20T11:51:36.787Z,3.30
2018-07-20T11:54:06.148Z,3.20
2018-07-20T11:56:35.028Z,2.97
2018-07-20T11:59:04.541Z,3.03
2018-07-20T12:01:33.857Z,3.23
2018-07-20T12:04:03.172Z,3.40
2018-07-20T12:06:32.508Z,3.17
2018-07-20T12:09:02.058Z,3.43
2018-07-20T12:11:31.404Z,3.07
2018-07-20T12:14:00.736Z,3.60
2018-07-20T12:16:30.184Z,3.70
2018-07-20T12:18:59.793Z,3.40
2018-07-20T12:21:29.123Z,3.57
2018-07-20T12:23:58.530Z,3.57
2018-07-20T12:26:27.935Z,3.67
2018-07-20T12:28:57.760Z,3.47
2018-07-20T12:31:27.140Z,3.33
2018-07-20T12:33:56.464Z,3.03
2018-07-20T12:36:26.626Z,2.90
2018-07-20T12:38:56.898Z,3.20
2018-07-20T12:41:27.120Z,3.00
2018-07-20T12:43:57.193Z,3.30
2018-07-20T12:46:26.839Z,3.27
2018-07-20T12:48:56.420Z,3.27
2018-07-20T12:51:26.097Z,3.43
2018-07-20T12:53:55.396Z,3.23
2018-07-20T12:56:26.877Z,3.30
2018-07-20T12:58:57.320Z,3.10
2018-07-20T13:01:27.408Z,3.20
2018-07-20T13:03:57.455Z,3.60
2018-07-20T13:06:26.770Z,3.23
2018-07-20T13:08:56.178Z,3.00
2018-07-20T13:11:25.571Z,3.30
2018-07-20T13:13:54.925Z,3.13
2018-07-20T13:16:24.273Z,3.03
2018-07-20T13:18:53.725Z,3.10
2018-07-20T13:21:22.508Z,2.93
2018-07-20T13:23:51.381Z,3.53
2018-07-20T13:26:20.833Z,3.37
2018-07-20T13:28:50.206Z,3.37
2018-07-20T13:31:20.044Z,3.33
2018-07-20T13:33:49.938Z,3.07
2018-07-20T13:36:18.714Z,3.13
2018-07-20T13:38:48.105Z,3.67
2018-07-20T13:41:17.461Z,2.90
2018-07-20T13:43:46.748Z,3.00
2018-07-20T13:46:16.025Z,3.00
2018-07-20T13:48:45.511Z,3.17
2018-07-20T13:51:14.921Z,3.60
2018-07-20T13:53:44.294Z,3.43
2018-07-20T13:56:13.650Z,3.00
2018-07-20T13:58:42.460Z,3.10
2018-07-20T14:01:11.851Z,3.40
2018-07-20T14:03:41.204Z,3.67
2018-07-20T14:06:13.040Z,3.33
2018-07-20T14:08:42.356Z,3.80
2018-07-20T14:11:11.676Z,3.53
2018-07-20T14:13:40.973Z,3.77
2018-07-20T14:16:10.288Z,3.30
2018-07-20T14:18:39.818Z,3.37
2018-07-20T14:21:09.273Z,3.17
2018-07-20T14:23:38.609Z,3.67
2018-07-20T14:26:07.988Z,3.40
2018-07-20T14:28:37.444Z,3.27
2018-07-20T14:31:06.851Z,3.50
2018-07-20T14:33:36.280Z,3.37
2018-07-20T14:36:05.623Z,3.40
2018-07-20T14:38:35.271Z,3.40
2018-07-20T14:41:04.586Z,3.70
2018-07-20T14:43:33.942Z,3.47
2018-07-20T14:46:03.290Z,3.53
2018-07-20T14:48:32.603Z,3.20
2018-07-20T14:51:02.025Z,3.37
2018-07-20T14:53:31.395Z,3.67
2018-07-20T14:56:00.952Z,3.23
2018-07-20T14:58:30.304Z,3.03
2018-07-20T15:01:00.054Z,3.73
2018-07-20T15:03:29.527Z,3.43
2018-07-20T15:05:58.845Z,3.20
2018-07-20T15:08:28.171Z,3.30
2018-07-20T15:10:57.554Z,3.37
2018-07-20T15:13:26.860Z,3.30
2018-07-20T15:15:56.178Z,3.40
2018-07-20T15:18:25.569Z,3.33
2018-07-20T15:20:55.043Z,3.70
2018-07-20T15:23:24.370Z,3.47
2018-07-20T15:25:53.760Z,3.30
2018-07-20T15:28:23.050Z,3.27
2018-07-20T15:30:52.448Z,3.20
2018-07-20T15:33:22.664Z,3.33
2018-07-20T15:35:52.032Z,3.20
2018-07-20T15:38:21.451Z,2.77
2018-07-20T15:40:50.829Z,3.30
2018-07-20T15:43:20.196Z,3.13
2018-07-20T15:46:05.665Z,3.37
2018-07-20T15:48:18.937Z,3.30
2018-07-20T15:50:48.427Z,3.40
2018-07-20T15:53:44.759Z,3.40
2018-07-20T15:55:47.056Z,3.50
2018-07-20T15:58:16.370Z,3.27
2018-07-20T16:00:45.762Z,3.73
2018-07-20T16:03:15.155Z,3.40
2018-07-20T16:05:44.525Z,3.33
2018-07-20T16:08:13.809Z,3.50
2018-07-20T16:10:43.160Z,3.43
2018-07-20T16:13:12.868Z,3.47
2018-07-20T16:15:42.454Z,3.53
2018-07-20T16:18:11.775Z,4.00
2018-07-20T16:20:43.505Z,4.13
2018-07-20T16:23:13.334Z,3.77
2018-07-20T16:25:42.896Z,3.80
2018-07-20T16:28:12.321Z,4.00
2018-07-20T16:30:42.027Z,3.67
2018-07-20T16:33:11.360Z,3.57
2018-07-20T16:35:40.941Z,3.90
2018-07-20T16:38:10.815Z,3.30
2018-07-20T16:40:40.308Z,3.73
2018-07-20T16:43:09.688Z,3.70
2018-07-20T16:45:39.716Z,3.40
2018-07-20T16:48:10.405Z,3.30
2018-07-20T16:50:41.185Z,3.70
2018-07-20T16:53:10.769Z,3.50
2018-07-20T16:55:39.620Z,3.77
2018-07-20T16:58:09.028Z,3.73
2018-07-20T17:00:40.043Z,4.10
2018-07-20T17:03:09.357Z,3.77
2018-07-20T17:05:38.600Z,3.60
2018-07-20T17:08:08.057Z,3.73
2018-07-20T17:10:37.427Z,3.67
2018-07-20T17:13:06.805Z,3.80
2018-07-20T17:15:36.264Z,4.00
2018-07-20T17:18:05.558Z,4.20
2018-07-20T17:20:35.058Z,3.93
2018-07-20T17:23:04.369Z,5.63
2018-07-20T17:25:33.982Z,5.90
2018-07-20T17:28:03.450Z,6.00
2018-07-20T17:30:33.325Z,5.63
2018-07-20T17:33:02.686Z,6.30
2018-07-20T17:35:32.127Z,6.00
2018-07-20T17:38:01.914Z,5.63
2018-07-20T17:40:31.444Z,5.60
2018-07-20T17:43:00.788Z,5.60
2018-07-20T17:45:30.297Z,5.27
2018-07-20T17:47:59.154Z,4.80
2018-07-20T17:50:28.772Z,5.07
2018-07-20T17:52:58.192Z,5.17
2018-07-20T17:55:27.566Z,5.40
2018-07-20T17:57:56.939Z,4.90
2018-07-20T18:00:26.507Z,4.90
2018-07-20T18:02:55.892Z,4.73
2018-07-20T18:05:26.062Z,4.80
2018-07-20T18:07:55.392Z,4.20
2018-07-20T18:10:24.946Z,4.40
2018-07-20T18:12:55.104Z,4.40
2018-07-20T18:15:24.685Z,4.50
2018-07-20T18:17:54.053Z,3.80
2018-07-20T18:20:23.751Z,4.57
2018-07-20T18:22:53.162Z,4.30
2018-07-20T18:25:22.705Z,4.23
2018-07-20T18:27:51.955Z,4.40
2018-07-20T18:30:21.402Z,4.20
2018-07-20T18:32:50.808Z,3.87
2018-07-20T18:35:20.356Z,3.63
2018-07-20T18:37:49.772Z,3.97
2018-07-20T18:40:19.383Z,3.90
2018-07-20T18:42:48.692Z,3.80
2018-07-20T18:45:18.004Z,3.97
2018-07-20T18:47:47.778Z,3.77
2018-07-20T18:50:17.218Z,4.23
2018-07-20T18:52:46.539Z,3.73
2018-07-20T18:55:16.092Z,4.20
2018-07-20T18:57:47.243Z,4.00
2018-07-20T19:00:16.801Z,3.47
2018-07-20T19:02:46.351Z,3.27
2018-07-20T19:05:15.737Z,3.00
2018-07-20T19:07:49.107Z,3.70
2018-07-20T19:10:18.522Z,3.50
2018-07-20T19:12:48.293Z,3.00
2018-07-20T19:15:17.829Z,4.00
2018-07-20T19:17:47.262Z,2.83
2018-07-20T19:20:17.728Z,2.77
2018-07-20T19:22:47.085Z,2.90
2018-07-20T19:25:16.400Z,2.50
2018-07-20T19:27:45.872Z,3.10
2018-07-20T19:30:15.324Z,2.77
2018-07-20T19:32:44.230Z,2.63
2018-07-20T19:35:13.693Z,2.50
2018-07-20T19:37:43.143Z,2.67
2018-07-20T19:40:12.662Z,2.93
2018-07-20T19:42:42.104Z,2.50
2018-07-20T19:45:11.516Z,2.60
2018-07-20T19:47:40.863Z,2.50
2018-07-20T19:50:10.332Z,2.50
2018-07-20T19:52:40.494Z,2.43
2018-07-20T19:55:14.719Z,3.00
2018-07-20T19:57:44.157Z,2.70
2018-07-20T20:01:16.833Z,3.00
2018-07-20T20:03:46.385Z,2.43
2018-07-20T20:06:15.784Z,2.47
2018-07-20T20:08:46.312Z,2.40
2018-07-20T20:11:15.812Z,2.57
2018-07-20T20:13:45.263Z,2.63
2018-07-20T20:16:14.599Z,2.50
2018-07-20T20:18:43.937Z,2.50
2018-07-20T20:21:13.134Z,2.67
2018-07-20T20:23:42.402Z,2.50
2018-07-20T20:26:11.145Z,2.50
2018-07-20T20:28:40.415Z,2.47
2018-07-20T20:31:09.685Z,2.30
2018-07-20T20:33:39.089Z,2.30
2018-07-20T20:36:08.526Z,2.20
2018-07-20T20:38:37.960Z,2.60
2018-07-20T20:41:07.404Z,2.33
2018-07-20T20:43:36.752Z,2.37
2018-07-20T20:46:06.578Z,2.60
2018-07-20T20:48:37.395Z,2.10
2018-07-20T20:51:06.682Z,2.60
2018-07-20T20:53:36.453Z,2.47
2018-07-20T20:56:05.960Z,2.67
2018-07-20T20:58:35.236Z,2.50
2018-07-20T21:01:04.525Z,2.40
2018-07-20T21:03:33.827Z,2.30
2018-07-20T21:06:03.121Z,2.20
2018-07-20T21:08:32.458Z,2.40
2018-07-20T21:11:01.721Z,2.30
2018-07-20T21:13:31.000Z,2.47
2018-07-20T21:16:00.333Z,2.90
2018-07-20T21:18:29.633Z,2.50
2018-07-20T21:20:58.888Z,2.40
2018-07-20T21:23:28.096Z,2.60
2018-07-20T21:25:57.328Z,2.30
2018-07-20T21:28:26.617Z,2.50
2018-07-20T21:30:55.832Z,2.10
2018-07-20T21:33:25.124Z,2.63
2018-07-20T21:35:54.857Z,2.33
2018-07-20T21:38:25.630Z,2.50
2018-07-20T21:40:54.904Z,2.40
2018-07-20T21:43:24.380Z,2.37
2018-07-20T21:45:53.611Z,2.27
2018-07-20T21:48:22.826Z,2.50
2018-07-20T21:50:52.025Z,2.40
2018-07-20T21:53:21.265Z,2.67
2018-07-20T21:55:50.487Z,2.70
2018-07-20T21:58:19.696Z,2.37
2018-07-20T22:00:48.922Z,2.40
2018-07-20T22:03:18.133Z,2.33
2018-07-20T22:05:50.215Z,2.40
2018-07-20T22:08:19.538Z,2.57
2018-07-20T22:10:48.899Z,2.80
2018-07-20T22:13:18.238Z,2.23
2018-07-20T22:15:47.580Z,2.70
2018-07-20T22:18:17.040Z,2.57
2018-07-20T22:20:46.668Z,2.33
2018-07-20T22:23:16.059Z,2.53
2018-07-20T22:25:45.430Z,2.10
2018-07-20T22:28:14.755Z,2.60
2018-07-20T22:30:43.993Z,2.20
2018-07-20T22:33:13.629Z,2.50
2018-07-20T22:35:42.907Z,2.17
2018-07-20T22:38:12.201Z,2.23
2018-07-20T22:40:41.187Z,2.27
2018-07-20T22:43:10.514Z,2.57
2018-07-20T22:45:39.863Z,2.13
2018-07-20T22:48:09.222Z,2.47
2018-07-20T22:50:38.639Z,2.50
2018-07-20T22:53:07.970Z,2.47
2018-07-20T22:55:37.318Z,2.60
2018-07-20T22:58:06.852Z,2.50
2018-07-20T23:00:36.244Z,2.43
2018-07-20T23:03:05.581Z,2.00
2018-07-20T23:05:35.259Z,2.23
2018-07-20T23:08:04.749Z,2.10
2018-07-20T23:10:34.171Z,2.03
2018-07-20T23:13:03.558Z,2.17
2018-07-20T23:15:32.899Z,2.10
2018-07-20T23:18:02.220Z,2.20
2018-07-20T23:20:31.663Z,2.00
2018-07-20T23:23:01.008Z,2.57
2018-07-20T23:25:30.550Z,2.30
2018-07-20T23:27:59.870Z,2.10
2018-07-20T23:30:29.322Z,2.10
2018-07-20T23:32:58.669Z,2.10
2018-07-20T23:35:28.018Z,2.17
2018-07-20T23:37:57.393Z,2.40
2018-07-20T23:40:26.794Z,2.50
2018-07-20T23:42:56.126Z,2.20
2018-07-20T23:45:25.530Z,2.07
2018-07-20T23:47:54.900Z,2.00
2018-07-20T23:50:24.285Z,2.20
2018-07-20T23:52:53.641Z,2.00
2018-07-20T23:55:22.993Z,2.20
2018-07-20T23:57:52.349Z,2.20
